createdAt,value
2022-10-28T00:01:34.183Z,101549.92
2022-10-28T00:04:06.873Z,101548.75
2022-10-28T00:06:39.781Z,101544.22
2022-10-28T00:09:12.391Z,101539.36
2022-10-28T00:11:44.644Z,101535.84
2022-10-28T00:14:19.042Z,101535.48
2022-10-28T00:16:51.207Z,101533.23
2022-10-28T00:19:23.392Z,101528.39
2022-10-28T00:21:55.576Z,101530.91
2022-10-28T00:24:28.356Z,101533.91
2022-10-28T00:27:00.649Z,101530.53
2022-10-28T00:29:33.074Z,101529.35
2022-10-28T00:32:05.123Z,101528.23
2022-10-28T00:34:37.215Z,101520.09
2022-10-28T00:37:09.326Z,101518.52
2022-10-28T00:39:41.427Z,101516.74
2022-10-28T00:42:22.301Z,101518.11
2022-10-28T00:44:58.795Z,101519.73
2022-10-28T00:47:52.610Z,101519.04
2022-10-28T00:50:40.077Z,101518.73
2022-10-28T00:53:16.829Z,101519.55
2022-10-28T00:55:50.761Z,101514.00
2022-10-28T00:58:26.109Z,101509.04
2022-10-28T01:00:58.497Z,101491.23
2022-10-28T01:03:31.069Z,101508.02
2022-10-28T01:06:03.767Z,101507.89
2022-10-28T01:08:35.890Z,101506.23
2022-10-28T01:11:34.136Z,101502.80
2022-10-28T01:14:18.591Z,101499.90
2022-10-28T01:17:02.516Z,101499.09
2022-10-28T01:20:07.435Z,101494.92
2022-10-28T01:22:46.843Z,101495.44
2022-10-28T01:25:40.910Z,101495.58
2022-10-28T01:28:27.842Z,101491.90
2022-10-28T01:31:20.784Z,101496.86
2022-10-28T01:33:59.066Z,101492.23
2022-10-28T01:36:40.362Z,101493.05
2022-10-28T01:39:21.238Z,101491.02
2022-10-28T01:41:57.702Z,101486.61
2022-10-28T01:44:38.950Z,101491.65
2022-10-28T01:47:15.768Z,101484.77
2022-10-28T01:49:53.243Z,101487.63
2022-10-28T01:52:30.137Z,101487.00
2022-10-28T01:55:07.827Z,101484.41
2022-10-28T01:57:42.954Z,101485.61
2022-10-28T02:00:16.811Z,101485.76
2022-10-28T02:02:50.728Z,101487.81
2022-10-28T02:05:44.613Z,101478.57
2022-10-28T02:08:34.898Z,101471.79
2022-10-28T02:11:26.637Z,101468.91
2022-10-28T02:14:08.587Z,101463.54
2022-10-28T02:16:49.688Z,101456.63
2022-10-28T02:19:34.968Z,101445.61
2022-10-28T02:22:19.853Z,101452.31
2022-10-28T02:25:03.161Z,101438.63
2022-10-28T02:27:41.396Z,101450.83
2022-10-28T02:30:18.568Z,101446.02
2022-10-28T02:32:55.644Z,101445.35
2022-10-28T02:35:33.431Z,101440.97
2022-10-28T02:38:09.791Z,101438.83
2022-10-28T02:40:44.622Z,101420.04
2022-10-28T02:43:15.806Z,101425.14
2022-10-28T02:45:52.579Z,101420.89
2022-10-28T02:48:30.516Z,101421.76
2022-10-28T02:51:08.880Z,101417.31
2022-10-28T02:53:49.186Z,101419.02
2022-10-28T02:56:22.948Z,101419.13
2022-10-28T02:58:55.294Z,101417.64
2022-10-28T03:01:27.957Z,101415.83
2022-10-28T03:04:00.553Z,101415.07
2022-10-28T03:06:33.647Z,101413.34
2022-10-28T03:09:06.289Z,101410.52
2022-10-28T03:11:38.476Z,101398.55
2022-10-28T03:14:13.177Z,101395.05
2022-10-28T03:16:47.344Z,101382.57
2022-10-28T03:19:19.287Z,101399.30
2022-10-28T03:21:51.488Z,101402.30
2022-10-28T03:24:23.490Z,101384.23
2022-10-28T03:26:55.572Z,101399.42
2022-10-28T03:29:27.694Z,101403.27
2022-10-28T03:32:00.323Z,101403.68
2022-10-28T03:34:32.849Z,101392.56
2022-10-28T03:37:04.817Z,101397.82
2022-10-28T03:39:37.012Z,101393.77
2022-10-28T03:42:09.133Z,101399.33
2022-10-28T03:44:41.198Z,101403.54
2022-10-28T03:47:13.536Z,101404.03
2022-10-28T03:49:45.902Z,101400.02
2022-10-28T03:52:17.805Z,101393.13
2022-10-28T03:54:50.334Z,101391.15
2022-10-28T03:57:22.339Z,101387.08
2022-10-28T03:59:54.995Z,101387.61
2022-10-28T04:02:27.810Z,101379.96
2022-10-28T04:05:00.104Z,101376.09
2022-10-28T04:07:33.740Z,101372.01
2022-10-28T04:10:06.527Z,101365.05
2022-10-28T04:12:38.548Z,101363.67
2022-10-28T04:15:11.732Z,101369.23
2022-10-28T04:17:43.689Z,101366.05
2022-10-28T04:20:16.024Z,101371.89
2022-10-28T04:22:47.970Z,101376.05
2022-10-28T04:25:20.009Z,101377.73
2022-10-28T04:27:52.301Z,101375.37
2022-10-28T04:30:25.518Z,101374.09
2022-10-28T04:32:57.885Z,101363.29
2022-10-28T04:35:30.307Z,101374.35
2022-10-28T04:38:04.864Z,101365.61
2022-10-28T04:40:36.945Z,101358.27
2022-10-28T04:43:10.430Z,101363.31
2022-10-28T04:45:42.843Z,101354.88
2022-10-28T04:48:15.186Z,101351.86
2022-10-28T04:50:47.468Z,101341.81
2022-10-28T04:53:19.374Z,101344.23
2022-10-28T04:55:51.438Z,101343.14
2022-10-28T04:58:23.608Z,101343.49
2022-10-28T05:00:56.043Z,101341.02
2022-10-28T05:03:28.199Z,101341.56
2022-10-28T05:06:01.086Z,101341.05
2022-10-28T05:08:32.986Z,101341.18
2022-10-28T05:11:05.673Z,101342.08
2022-10-28T05:13:37.762Z,101335.09
2022-10-28T05:16:10.994Z,101335.16
2022-10-28T05:21:19.950Z,101334.89
2022-10-28T05:23:51.891Z,101339.47
2022-10-28T05:26:24.289Z,101337.27
2022-10-28T05:28:56.567Z,101336.09
2022-10-28T05:31:29.095Z,101335.40
2022-10-28T05:34:04.359Z,101331.87
2022-10-28T05:36:37.003Z,101328.06
2022-10-28T05:39:09.256Z,101329.60
2022-10-28T05:41:42.297Z,101329.10
2022-10-28T05:44:14.282Z,101333.98
2022-10-28T05:46:46.224Z,101331.52
2022-10-28T05:49:20.532Z,101326.95
2022-10-28T05:51:52.720Z,101321.10
2022-10-28T05:54:24.718Z,101318.52
2022-10-28T05:56:57.116Z,101317.50
2022-10-28T05:59:29.469Z,101315.88
2022-10-28T06:02:01.681Z,101324.75
2022-10-28T06:04:35.843Z,101321.55
2022-10-28T06:07:08.034Z,101318.13
2022-10-28T06:09:40.303Z,101317.46
2022-10-28T06:12:11.080Z,101320.81
2022-10-28T06:14:43.512Z,101322.58
2022-10-28T06:17:15.751Z,101313.41
2022-10-28T06:19:47.921Z,101310.59
2022-10-28T06:22:19.936Z,101313.41
2022-10-28T06:24:51.998Z,101325.52
2022-10-28T06:27:24.431Z,101331.63
2022-10-28T06:29:56.451Z,101327.81
2022-10-28T06:32:28.749Z,101329.24
2022-10-28T06:35:00.962Z,101327.32
2022-10-28T06:37:33.308Z,101325.69
2022-10-28T06:40:07.509Z,101325.80
2022-10-28T06:42:39.679Z,101327.11
2022-10-28T06:45:12.188Z,101327.85
2022-10-28T06:47:46.010Z,101330.46
2022-10-28T06:50:18.175Z,101333.39
2022-10-28T06:52:50.306Z,101333.42
2022-10-28T06:55:22.416Z,101338.92
2022-10-28T06:57:55.132Z,101341.74
2022-10-28T07:00:27.741Z,101336.11
2022-10-28T07:03:05.889Z,101339.52
2022-10-28T07:05:38.684Z,101336.52
2022-10-28T07:08:11.093Z,101336.52
2022-10-28T07:10:43.341Z,101340.33
2022-10-28T07:13:15.476Z,101338.42
2022-10-28T07:15:51.610Z,101353.54
2022-10-28T07:18:24.583Z,101353.00
2022-10-28T07:20:58.897Z,101355.57
2022-10-28T07:23:33.054Z,101357.16
2022-10-28T07:26:05.237Z,101356.34
2022-10-28T07:28:37.264Z,101353.91
2022-10-28T07:33:47.151Z,101353.20
2022-10-28T07:36:19.283Z,101357.65
2022-10-28T07:38:53.504Z,101358.15
2022-10-28T07:41:26.603Z,101361.02
2022-10-28T07:43:58.786Z,101362.84
2022-10-28T07:46:30.943Z,101361.58
2022-10-28T07:49:02.989Z,101362.02
2022-10-28T07:51:35.249Z,101359.84
2022-10-28T07:54:07.368Z,101363.73
2022-10-28T07:56:39.435Z,101363.45
2022-10-28T07:59:11.412Z,101364.06
2022-10-28T08:01:43.455Z,101358.30
2022-10-28T08:04:16.074Z,101356.23
2022-10-28T08:06:48.711Z,101359.79
2022-10-28T08:09:21.269Z,101363.22
2022-10-28T08:11:56.164Z,101367.66
2022-10-28T08:14:26.575Z,101367.60
2022-10-28T08:16:58.610Z,101369.46
2022-10-28T08:19:30.630Z,101363.62
2022-10-28T08:22:03.014Z,101354.07
2022-10-28T08:24:35.006Z,101350.98
2022-10-28T08:27:07.521Z,101347.95
2022-10-28T08:29:39.607Z,101343.69
2022-10-28T08:32:12.237Z,101346.73
2022-10-28T08:34:44.928Z,101336.71
2022-10-28T08:37:17.554Z,101329.19
2022-10-28T08:39:49.814Z,101328.30
2022-10-28T08:42:36.789Z,101329.70
2022-10-28T08:45:26.023Z,101332.05
2022-10-28T08:48:09.737Z,101326.52
2022-10-28T08:50:50.436Z,101319.19
2022-10-28T08:53:29.552Z,101319.69
2022-10-28T08:56:14.587Z,101321.98
2022-10-28T08:58:48.317Z,101323.06
2022-10-28T09:01:37.769Z,101321.33
2022-10-28T09:04:21.618Z,101314.27
2022-10-28T09:06:54.337Z,101316.39
2022-10-28T09:09:26.712Z,101318.30
2022-10-28T09:12:16.286Z,101293.05
2022-10-28T09:15:14.885Z,101307.14
2022-10-28T09:17:55.285Z,101308.04
2022-10-28T09:20:40.508Z,101306.20
2022-10-28T09:23:21.984Z,101322.79
2022-10-28T09:26:11.896Z,101328.89
2022-10-28T09:29:00.338Z,101336.17
2022-10-28T09:31:37.507Z,101337.17
2022-10-28T09:34:20.597Z,101320.23
2022-10-28T09:36:57.473Z,101327.44
2022-10-28T09:39:35.770Z,101326.00
2022-10-28T09:42:12.046Z,101329.47
2022-10-28T09:44:48.512Z,101333.92
2022-10-28T09:47:24.721Z,101333.20
2022-10-28T09:50:02.747Z,101336.46
2022-10-28T09:52:41.664Z,101325.84
2022-10-28T09:55:22.218Z,101333.60
2022-10-28T09:57:55.056Z,101335.45
2022-10-28T10:00:27.804Z,101335.42
2022-10-28T10:03:01.382Z,101331.41
2022-10-28T10:05:35.359Z,101330.18
2022-10-28T10:08:08.533Z,101329.63
2022-10-28T10:10:48.414Z,101325.77
2022-10-28T10:13:25.177Z,101320.61
2022-10-28T10:16:01.970Z,101317.73
2022-10-28T10:18:35.267Z,101318.13
2022-10-28T10:21:07.377Z,101317.58
2022-10-28T10:26:18.868Z,101312.95
2022-10-28T10:28:53.077Z,101316.45
2022-10-28T10:31:29.907Z,101312.75
2022-10-28T10:34:02.660Z,101309.61
2022-10-28T10:36:35.395Z,101307.36
2022-10-28T10:39:21.543Z,101306.56
2022-10-28T10:41:55.570Z,101305.44
2022-10-28T10:44:35.167Z,101309.61
2022-10-28T10:47:25.489Z,101304.14
2022-10-28T10:50:21.337Z,101303.58
2022-10-28T10:52:56.652Z,101306.64
2022-10-28T10:55:37.737Z,101308.88
2022-10-28T10:58:19.601Z,101315.23
2022-10-28T11:00:55.213Z,101323.20
2022-10-28T11:03:30.879Z,101322.09
2022-10-28T11:06:22.464Z,101310.02
2022-10-28T11:09:01.313Z,101321.95
2022-10-28T11:11:38.688Z,101320.56
2022-10-28T11:14:25.552Z,101339.66
2022-10-28T11:16:59.250Z,101357.09
2022-10-28T11:19:33.913Z,101359.20
2022-10-28T11:22:22.619Z,101354.73
2022-10-28T11:25:19.306Z,101349.93
2022-10-28T11:28:04.377Z,101352.98
2022-10-28T11:30:47.566Z,101349.77
2022-10-28T11:33:30.112Z,101343.88
2022-10-28T11:36:22.252Z,101337.90
2022-10-28T11:39:13.656Z,101331.20
2022-10-28T11:41:57.181Z,101324.70
2022-10-28T11:47:36.534Z,101312.06
2022-10-28T11:50:29.052Z,101309.96
2022-10-28T11:53:37.239Z,101316.02
2022-10-28T11:56:19.317Z,101314.98
2022-10-28T11:58:59.449Z,101301.50
2022-10-28T12:01:46.014Z,101293.46
2022-10-28T12:04:43.188Z,101278.98
2022-10-28T12:07:34.080Z,101271.52
2022-10-28T12:10:21.435Z,101254.05
2022-10-28T12:13:03.075Z,101255.20
2022-10-28T12:15:44.943Z,101255.45
2022-10-28T12:18:25.571Z,101246.31
2022-10-28T12:21:03.885Z,101234.58
2022-10-28T12:23:39.350Z,101228.04
2022-10-28T12:26:14.872Z,101218.96
2022-10-28T12:28:51.463Z,101214.69
2022-10-28T12:31:27.660Z,101196.67
2022-10-28T12:34:03.043Z,101210.88
2022-10-28T12:36:39.919Z,101214.75
2022-10-28T12:39:19.486Z,101224.18
2022-10-28T12:41:57.431Z,101228.44
2022-10-28T12:44:31.032Z,101239.58
2022-10-28T12:47:13.147Z,101247.84
2022-10-28T12:49:55.667Z,101248.73
2022-10-28T12:52:39.546Z,101241.60
2022-10-28T12:55:20.191Z,101230.75
2022-10-28T12:58:00.021Z,101226.92
2022-10-28T13:00:36.732Z,101224.52
2022-10-28T13:03:13.340Z,101222.55
2022-10-28T13:05:52.520Z,101211.61
2022-10-28T13:09:00.494Z,101205.63
2022-10-28T13:11:54.393Z,101195.23
2022-10-28T13:15:04.454Z,101190.27
2022-10-28T13:17:48.582Z,101172.11
2022-10-28T13:20:30.185Z,101184.05
2022-10-28T13:23:17.433Z,101174.40
2022-10-28T13:26:04.271Z,101176.59
2022-10-28T13:28:44.203Z,101176.13
2022-10-28T13:31:16.764Z,101171.14
2022-10-28T13:33:56.899Z,101176.30
2022-10-28T13:36:32.614Z,101177.99
2022-10-28T13:39:22.340Z,101186.55
2022-10-28T13:42:37.771Z,101188.11
2022-10-28T13:45:50.492Z,101192.35
2022-10-28T13:48:49.512Z,101190.29
2022-10-28T13:51:48.155Z,101191.37
2022-10-28T13:54:32.659Z,101187.87
2022-10-28T13:57:13.293Z,101187.69
2022-10-28T13:59:54.697Z,101187.34
2022-10-28T14:02:36.184Z,101185.84
2022-10-28T14:05:10.992Z,101191.28
2022-10-28T14:07:56.477Z,101187.30
2022-10-28T14:10:31.162Z,101185.40
2022-10-28T14:13:06.036Z,101181.17
2022-10-28T14:15:37.087Z,101178.45
2022-10-28T14:21:16.802Z,101177.27
2022-10-28T14:24:31.825Z,101177.90
2022-10-28T14:27:31.102Z,101172.64
2022-10-28T14:30:20.300Z,101169.30
2022-10-28T14:33:31.699Z,101163.59
2022-10-28T14:36:23.851Z,101160.30
2022-10-28T14:39:19.099Z,101162.05
2022-10-28T14:42:15.595Z,101165.55
2022-10-28T14:45:20.972Z,101160.10
2022-10-28T14:48:12.469Z,101153.83
2022-10-28T14:50:48.131Z,101154.66
2022-10-28T14:53:25.511Z,101161.94
2022-10-28T14:56:04.273Z,101160.27
2022-10-28T14:58:41.575Z,101155.39
2022-10-28T15:01:27.333Z,101151.95
2022-10-28T15:04:02.493Z,101150.11
2022-10-28T15:06:40.666Z,101141.27
2022-10-28T15:09:20.349Z,101137.56
2022-10-28T15:11:57.293Z,101138.15
2022-10-28T15:14:36.772Z,101132.27
2022-10-28T15:17:17.308Z,101121.83
2022-10-28T15:19:52.160Z,101121.70
2022-10-28T15:22:26.534Z,101120.98
2022-10-28T15:25:01.673Z,101125.40
2022-10-28T15:27:36.686Z,101119.09
2022-10-28T15:30:17.018Z,101129.46
2022-10-28T15:32:49.128Z,101134.23
2022-10-28T15:35:40.893Z,101126.59
2022-10-28T15:38:38.246Z,101124.98
2022-10-28T15:41:44.081Z,101123.20
2022-10-28T15:44:35.556Z,101120.23
2022-10-28T15:47:27.982Z,101119.34
2022-10-28T15:50:07.031Z,101114.27
2022-10-28T15:52:41.154Z,101113.48
2022-10-28T15:58:41.757Z,101117.04
2022-10-28T16:01:31.489Z,101118.89
2022-10-28T16:04:03.920Z,101115.85
2022-10-28T16:06:38.061Z,101119.32
2022-10-28T16:09:24.987Z,101116.81
2022-10-28T16:12:01.721Z,101114.81
2022-10-28T16:14:40.589Z,101106.38
2022-10-28T16:17:19.385Z,101098.49
2022-10-28T16:19:56.810Z,101113.30
2022-10-28T16:22:31.825Z,101109.59
2022-10-28T16:25:02.322Z,101107.20
2022-10-28T16:27:35.110Z,101105.90
2022-10-28T16:30:09.173Z,101095.92
2022-10-28T16:32:43.880Z,101096.66
2022-10-28T16:35:16.758Z,101099.23
2022-10-28T16:37:54.796Z,101099.30
2022-10-28T16:40:50.280Z,101108.38
2022-10-28T16:43:22.056Z,101107.58
2022-10-28T16:45:55.451Z,101100.33
2022-10-28T16:48:29.416Z,101103.52
2022-10-28T16:51:04.096Z,101107.95
2022-10-28T16:53:36.604Z,101111.15
2022-10-28T16:56:13.581Z,101109.77
2022-10-28T16:58:47.600Z,101111.45
2022-10-28T17:01:22.390Z,101109.77
2022-10-28T17:03:54.844Z,101108.46
2022-10-28T17:06:26.990Z,101107.98
2022-10-28T17:09:03.578Z,101113.20
2022-10-28T17:11:36.071Z,101109.11
2022-10-28T17:14:08.296Z,101107.75
2022-10-28T17:16:43.215Z,101106.70
2022-10-28T17:19:15.758Z,101108.62
2022-10-28T17:21:47.851Z,101111.83
2022-10-28T17:24:20.492Z,101112.39
2022-10-28T17:26:53.263Z,101097.27
2022-10-28T17:29:25.537Z,101111.98
2022-10-28T17:31:57.844Z,101109.58
2022-10-28T17:34:30.204Z,101094.46
2022-10-28T17:37:02.207Z,101103.55
2022-10-28T17:39:34.500Z,101103.31
2022-10-28T17:42:07.020Z,101104.76
2022-10-28T17:44:39.814Z,101101.14
2022-10-28T17:47:13.168Z,101100.73
2022-10-28T17:49:45.337Z,101096.70
2022-10-28T17:52:17.763Z,101095.02
2022-10-28T17:54:51.204Z,101092.03
2022-10-28T17:57:23.440Z,101093.45
2022-10-28T17:59:55.963Z,101091.38
2022-10-28T18:02:28.689Z,101092.80
2022-10-28T18:05:00.982Z,101086.20
2022-10-28T18:07:33.205Z,101087.95
2022-10-28T18:10:06.335Z,101084.26
2022-10-28T18:12:38.785Z,101079.14
2022-10-28T18:15:12.417Z,101080.02
2022-10-28T18:17:44.860Z,101077.85
2022-10-28T18:20:19.044Z,101075.52
2022-10-28T18:22:50.519Z,101072.63
2022-10-28T18:25:22.506Z,101077.22
2022-10-28T18:27:54.986Z,101071.11
2022-10-28T18:30:27.326Z,101061.64
2022-10-28T18:33:00.863Z,101061.15
2022-10-28T18:35:35.340Z,101055.85
2022-10-28T18:38:07.703Z,101061.30
2022-10-28T18:40:46.432Z,101058.89
2022-10-28T18:43:19.606Z,101057.05
2022-10-28T18:45:53.659Z,101054.65
2022-10-28T18:48:26.095Z,101054.58
2022-10-28T18:51:02.376Z,101055.37
2022-10-28T18:53:38.239Z,101044.89
2022-10-28T18:56:13.921Z,101052.77
2022-10-28T18:58:48.413Z,101049.95
2022-10-28T19:01:23.148Z,101052.04
2022-10-28T19:03:57.305Z,101052.83
2022-10-28T19:06:32.675Z,101057.17
2022-10-28T19:09:07.635Z,101058.22
2022-10-28T19:11:40.955Z,101054.92
2022-10-28T19:14:13.841Z,101060.70
2022-10-28T19:16:46.375Z,101065.50
2022-10-28T19:19:19.525Z,101065.34
2022-10-28T19:21:52.595Z,101064.73
2022-10-28T19:24:26.667Z,101054.27
2022-10-28T19:26:59.441Z,101060.96
2022-10-28T19:29:32.850Z,101060.06
2022-10-28T19:32:06.946Z,101057.55
2022-10-28T19:34:40.844Z,101055.94
2022-10-28T19:37:13.758Z,101059.21
2022-10-28T19:39:47.007Z,101051.54
2022-10-28T19:42:19.355Z,101047.02
2022-10-28T19:44:52.037Z,101046.87
2022-10-28T19:47:24.556Z,101051.60
2022-10-28T19:49:56.734Z,101051.45
2022-10-28T19:52:28.920Z,101052.14
2022-10-28T19:55:01.075Z,101049.44
2022-10-28T19:57:33.651Z,101048.48
2022-10-28T20:00:07.039Z,101039.15
2022-10-28T20:02:44.022Z,101041.19
2022-10-28T20:05:16.740Z,101052.15
2022-10-28T20:07:48.926Z,101038.16
2022-10-28T20:10:21.832Z,101051.57
2022-10-28T20:12:54.223Z,101055.58
2022-10-28T20:15:26.822Z,101055.61
2022-10-28T20:17:58.939Z,101057.38
2022-10-28T20:20:31.238Z,101058.77
2022-10-28T20:23:03.317Z,101056.80
2022-10-28T20:25:35.323Z,101060.02
2022-10-28T20:28:07.716Z,101061.45
2022-10-28T20:30:39.841Z,101055.51
2022-10-28T20:33:12.009Z,101053.46
2022-10-28T20:35:44.244Z,101051.15
2022-10-28T20:38:16.815Z,101036.94
2022-10-28T20:40:51.113Z,101047.81
2022-10-28T20:43:25.196Z,101051.14
2022-10-28T20:45:59.858Z,101049.98
2022-10-28T20:48:32.456Z,101046.16
2022-10-28T20:51:05.127Z,101041.88
2022-10-28T20:53:37.526Z,101047.88
2022-10-28T20:56:15.884Z,101047.52
2022-10-28T20:58:48.311Z,101048.60
2022-10-28T21:01:22.234Z,101047.40
2022-10-28T21:03:57.584Z,101050.23
2022-10-28T21:06:31.507Z,101050.38
2022-10-28T21:09:05.165Z,101052.56
2022-10-28T21:11:37.277Z,101047.27
2022-10-28T21:14:09.748Z,101047.92
2022-10-28T21:16:42.261Z,101041.89
2022-10-28T21:19:14.307Z,101042.79
2022-10-28T21:21:46.224Z,101039.61
2022-10-28T21:24:18.196Z,101041.53
2022-10-28T21:26:52.162Z,101036.90
2022-10-28T21:29:24.633Z,101032.40
2022-10-28T21:31:56.689Z,101031.40
2022-10-28T21:34:28.891Z,101031.45
2022-10-28T21:37:01.258Z,101029.15
2022-10-28T21:39:33.749Z,101028.21
2022-10-28T21:42:06.313Z,101035.46
2022-10-28T21:44:38.287Z,101036.28
2022-10-28T21:47:10.363Z,101037.34
2022-10-28T21:49:42.553Z,101032.41
2022-10-28T21:52:14.432Z,101030.83
2022-10-28T21:54:46.952Z,101030.10
2022-10-28T21:57:19.033Z,101033.39
2022-10-28T21:59:51.052Z,101029.30
2022-10-28T22:02:23.911Z,101022.91
2022-10-28T22:04:56.135Z,101014.30
2022-10-28T22:07:28.574Z,101015.85
2022-10-28T22:10:00.573Z,101014.73
2022-10-28T22:12:33.284Z,101015.70
2022-10-28T22:15:05.921Z,101014.27
2022-10-28T22:17:38.001Z,101020.14
2022-10-28T22:20:11.537Z,101021.90
2022-10-28T22:22:43.726Z,101022.60
2022-10-28T22:25:18.405Z,101027.69
2022-10-28T22:27:50.774Z,101025.25
2022-10-28T22:30:22.805Z,101019.73
2022-10-28T22:32:55.092Z,101021.54
2022-10-28T22:35:27.668Z,101030.95
2022-10-28T22:37:59.931Z,101028.02
2022-10-28T22:40:31.968Z,101029.81
2022-10-28T22:43:03.964Z,101032.02
2022-10-28T22:45:36.034Z,101033.43
2022-10-28T22:48:08.861Z,101034.17
2022-10-28T22:50:40.915Z,101036.73
2022-10-28T22:53:12.912Z,101033.04
2022-10-28T22:55:45.261Z,101031.19
2022-10-28T22:58:18.334Z,101032.21
2022-10-28T23:00:50.489Z,101032.60
2022-10-28T23:03:22.714Z,101029.70
2022-10-28T23:05:55.167Z,101035.48
2022-10-28T23:08:27.264Z,101033.17
2022-10-28T23:10:59.284Z,101030.84
2022-10-28T23:13:31.386Z,101034.30
2022-10-28T23:16:07.369Z,101042.46
2022-10-28T23:18:40.149Z,101046.45
2022-10-28T23:21:15.015Z,101037.64
2022-10-28T23:23:51.402Z,101034.17
2022-10-28T23:26:26.641Z,101027.89
2022-10-28T23:29:00.705Z,101026.51
2022-10-28T23:31:32.823Z,101028.68
2022-10-28T23:34:04.828Z,101031.39
2022-10-28T23:36:37.354Z,101030.17
2022-10-28T23:39:09.987Z,101008.98
2022-10-28T23:41:42.099Z,101031.64
2022-10-28T23:44:14.727Z,101034.01
2022-10-28T23:46:47.231Z,101034.65
2022-10-28T23:49:19.231Z,101037.19
2022-10-28T23:51:51.414Z,101032.63
2022-10-28T23:54:23.360Z,101032.54
2022-10-28T23:56:55.413Z,101024.39
2022-10-28T23:59:27.630Z,101023.92
